createdAt,value
2022-11-24T00:01:15.728Z,55.90
2022-11-24T00:03:44.329Z,55.20
2022-11-24T00:06:14.017Z,55.10
2022-11-24T00:08:43.609Z,55.10
2022-11-24T00:11:15.331Z,55.00
2022-11-24T00:13:43.845Z,54.90
2022-11-24T00:16:13.493Z,54.90
2022-11-24T00:18:43.017Z,54.90
2022-11-24T00:21:11.539Z,54.90
2022-11-24T00:23:39.817Z,54.90
2022-11-24T00:26:09.718Z,55.00
2022-11-24T00:28:39.793Z,55.00
2022-11-24T00:31:17.754Z,55.10
2022-11-24T00:33:46.458Z,55.10
2022-11-24T00:36:15.208Z,55.10
2022-11-24T00:38:43.288Z,55.10
2022-11-24T00:41:11.346Z,55.10
2022-11-24T00:43:40.916Z,55.10
2022-11-24T00:46:09.049Z,55.10
2022-11-24T00:48:37.136Z,55.00
2022-11-24T00:51:07.368Z,55.60
2022-11-24T00:53:36.006Z,55.10
2022-11-24T00:56:04.685Z,55.10
2022-11-24T00:58:33.711Z,55.10
2022-11-24T01:01:08.134Z,55.10
2022-11-24T01:03:36.524Z,55.10
2022-11-24T01:06:06.565Z,55.10
2022-11-24T01:08:34.942Z,55.10
2022-11-24T01:11:13.383Z,55.10
2022-11-24T01:13:42.255Z,55.20
2022-11-24T01:16:18.813Z,55.00
2022-11-24T01:18:46.993Z,55.00
2022-11-24T01:21:15.755Z,54.90
2022-11-24T01:23:43.957Z,55.40
2022-11-24T01:26:14.592Z,54.90
2022-11-24T01:28:47.118Z,54.80
2022-11-24T01:31:17.723Z,54.90
2022-11-24T01:33:45.918Z,54.80
2022-11-24T01:36:14.032Z,54.80
2022-11-24T01:38:42.158Z,55.00
2022-11-24T01:41:14.228Z,55.00
2022-11-24T01:43:42.960Z,55.10
2022-11-24T01:46:19.154Z,55.00
2022-11-24T01:48:52.663Z,55.00
2022-11-24T01:51:24.790Z,55.10
2022-11-24T01:53:58.211Z,55.10
2022-11-24T01:56:27.419Z,55.10
2022-11-24T01:58:57.814Z,55.00
2022-11-24T02:01:27.725Z,54.90
2022-11-24T02:03:56.786Z,54.90
2022-11-24T02:06:28.825Z,55.30
2022-11-24T02:09:00.116Z,54.80
2022-11-24T02:11:31.489Z,54.80
2022-11-24T02:13:59.745Z,54.80
2022-11-24T02:16:29.809Z,54.80
2022-11-24T02:18:58.080Z,54.90
2022-11-24T02:21:26.259Z,54.90
2022-11-24T02:24:01.963Z,54.90
2022-11-24T02:26:43.453Z,55.00
2022-11-24T02:29:12.653Z,55.10
2022-11-24T02:31:45.531Z,55.00
2022-11-24T02:34:13.512Z,55.10
2022-11-24T02:36:41.548Z,55.00
2022-11-24T02:39:13.226Z,55.10
2022-11-24T02:41:45.805Z,55.10
2022-11-24T02:44:16.599Z,55.10
2022-11-24T02:46:44.700Z,55.10
2022-11-24T02:49:12.750Z,55.10
2022-11-24T02:51:40.776Z,55.20
2022-11-24T02:54:08.774Z,55.20
2022-11-24T02:56:36.760Z,55.20
2022-11-24T02:59:06.110Z,55.20
2022-11-24T03:01:34.205Z,55.20
2022-11-24T03:04:02.249Z,55.20
2022-11-24T03:06:30.229Z,55.50
2022-11-24T03:08:58.230Z,55.20
2022-11-24T03:11:26.276Z,55.20
2022-11-24T03:13:54.442Z,55.10
2022-11-24T03:16:23.969Z,55.10
2022-11-24T03:18:52.313Z,55.10
2022-11-24T03:21:20.448Z,55.10
2022-11-24T03:23:48.480Z,55.10
2022-11-24T03:26:18.970Z,55.10
2022-11-24T03:28:47.008Z,55.10
2022-11-24T03:31:15.491Z,55.10
2022-11-24T03:33:44.957Z,55.10
2022-11-24T03:36:12.967Z,55.10
2022-11-24T03:38:41.144Z,55.10
2022-11-24T03:41:09.221Z,55.20
2022-11-24T03:43:43.206Z,55.10
2022-11-24T03:46:12.706Z,55.10
2022-11-24T03:48:41.370Z,55.10
2022-11-24T03:51:11.456Z,55.10
2022-11-24T03:53:39.513Z,55.10
2022-11-24T03:56:07.971Z,55.10
2022-11-24T03:58:36.207Z,55.10
2022-11-24T04:01:04.280Z,55.10
2022-11-24T04:03:32.368Z,55.00
2022-11-24T04:06:00.363Z,54.90
2022-11-24T04:08:29.910Z,55.00
2022-11-24T04:10:57.958Z,55.00
2022-11-24T04:13:27.341Z,55.00
2022-11-24T04:15:55.792Z,54.90
2022-11-24T04:18:24.056Z,54.90
2022-11-24T04:20:52.463Z,55.00
2022-11-24T04:23:20.766Z,55.00
2022-11-24T04:25:49.997Z,55.00
2022-11-24T04:28:17.859Z,55.00
2022-11-24T04:30:45.732Z,55.00
2022-11-24T04:33:14.259Z,55.00
2022-11-24T04:35:42.236Z,55.50
2022-11-24T04:38:10.175Z,55.10
2022-11-24T04:40:38.938Z,55.10
2022-11-24T04:43:08.154Z,55.20
2022-11-24T04:45:36.187Z,55.30
2022-11-24T04:48:04.344Z,55.30
2022-11-24T04:50:32.332Z,55.30
2022-11-24T04:53:00.239Z,55.30
2022-11-24T04:55:28.156Z,55.30
2022-11-24T04:57:56.159Z,55.40
2022-11-24T05:00:25.450Z,55.90
2022-11-24T05:02:53.346Z,55.40
2022-11-24T05:05:21.261Z,55.40
2022-11-24T05:07:49.185Z,55.40
2022-11-24T05:10:36.310Z,55.40
2022-11-24T05:13:06.879Z,55.40
2022-11-24T05:15:37.730Z,55.40
2022-11-24T05:18:07.091Z,55.40
2022-11-24T05:20:35.228Z,55.40
2022-11-24T05:23:04.330Z,55.40
2022-11-24T05:25:32.505Z,55.50
2022-11-24T05:28:01.229Z,55.40
2022-11-24T05:30:29.453Z,55.50
2022-11-24T05:32:58.793Z,55.50
2022-11-24T05:35:26.766Z,55.60
2022-11-24T05:37:55.158Z,55.60
2022-11-24T05:40:23.162Z,55.60
2022-11-24T05:42:51.452Z,55.60
2022-11-24T05:45:21.479Z,55.60
2022-11-24T05:47:50.641Z,55.60
2022-11-24T05:50:21.757Z,55.60
2022-11-24T05:52:50.273Z,55.60
2022-11-24T05:55:19.399Z,55.60
2022-11-24T05:57:47.321Z,55.60
2022-11-24T06:00:17.916Z,55.60
2022-11-24T06:02:46.023Z,55.60
2022-11-24T06:05:14.035Z,55.60
2022-11-24T06:07:44.507Z,55.60
2022-11-24T06:10:12.554Z,55.60
2022-11-24T06:12:40.465Z,55.60
2022-11-24T06:15:09.294Z,55.60
2022-11-24T06:17:37.224Z,55.70
2022-11-24T06:20:06.143Z,55.60
2022-11-24T06:22:34.164Z,55.70
2022-11-24T06:25:03.493Z,55.70
2022-11-24T06:27:32.299Z,55.70
2022-11-24T06:30:00.781Z,55.70
2022-11-24T06:32:28.694Z,55.70
2022-11-24T06:34:56.654Z,55.70
2022-11-24T06:37:24.569Z,55.70
2022-11-24T06:39:52.493Z,55.70
2022-11-24T06:42:21.755Z,55.70
2022-11-24T06:44:49.839Z,55.70
2022-11-24T06:47:17.754Z,55.70
2022-11-24T06:49:45.690Z,55.70
2022-11-24T06:52:13.591Z,55.80
2022-11-24T06:54:41.500Z,55.80
2022-11-24T06:57:09.469Z,55.80
2022-11-24T06:59:38.782Z,55.80
2022-11-24T07:02:06.759Z,55.80
2022-11-24T07:04:34.936Z,55.70
2022-11-24T07:07:03.885Z,55.70
2022-11-24T07:09:31.855Z,55.80
2022-11-24T07:11:59.760Z,55.80
2022-11-24T07:14:27.624Z,55.80
2022-11-24T07:16:56.922Z,55.90
2022-11-24T07:19:25.430Z,55.90
2022-11-24T07:21:53.672Z,55.90
2022-11-24T07:24:21.575Z,55.90
2022-11-24T07:26:49.467Z,56.00
2022-11-24T07:29:17.378Z,56.00
2022-11-24T07:31:46.054Z,55.90
2022-11-24T07:34:15.673Z,55.90
2022-11-24T07:36:45.116Z,55.80
2022-11-24T07:39:13.131Z,55.70
2022-11-24T07:41:41.121Z,55.80
2022-11-24T07:44:09.169Z,55.90
2022-11-24T07:46:37.130Z,56.00
2022-11-24T07:49:05.141Z,56.20
2022-11-24T07:51:34.410Z,56.30
2022-11-24T07:54:02.337Z,56.60
2022-11-24T07:56:30.258Z,56.90
2022-11-24T07:58:58.166Z,57.10
2022-11-24T08:01:26.140Z,57.20
2022-11-24T08:03:54.186Z,57.30
2022-11-24T08:06:26.054Z,57.30
2022-11-24T08:08:56.929Z,57.80
2022-11-24T08:11:25.006Z,57.30
2022-11-24T08:13:53.171Z,57.20
2022-11-24T08:16:21.834Z,57.10
2022-11-24T08:18:54.627Z,57.20
2022-11-24T08:21:23.878Z,57.20
2022-11-24T08:23:57.169Z,57.10
2022-11-24T08:26:26.375Z,57.30
2022-11-24T08:28:56.615Z,57.40
2022-11-24T08:31:24.867Z,57.50
2022-11-24T08:33:52.923Z,57.20
2022-11-24T08:36:21.249Z,57.30
2022-11-24T08:38:49.991Z,57.70
2022-11-24T08:41:19.267Z,58.00
2022-11-24T08:43:47.189Z,58.20
2022-11-24T08:46:17.619Z,58.50
2022-11-24T08:48:48.599Z,58.40
2022-11-24T08:51:18.665Z,58.30
2022-11-24T08:53:46.840Z,58.20
2022-11-24T08:56:15.199Z,58.10
2022-11-24T08:58:44.498Z,57.70
2022-11-24T09:01:14.379Z,57.40
2022-11-24T09:03:48.522Z,57.30
2022-11-24T09:06:19.638Z,57.10
2022-11-24T09:08:48.458Z,57.10
2022-11-24T09:11:17.676Z,57.00
2022-11-24T09:13:47.184Z,57.30
2022-11-24T09:16:17.227Z,57.50
2022-11-24T09:18:45.616Z,57.60
2022-11-24T09:21:15.105Z,57.50
2022-11-24T09:23:44.062Z,57.20
2022-11-24T09:26:14.455Z,57.00
2022-11-24T09:28:42.902Z,57.10
2022-11-24T09:31:14.184Z,57.10
2022-11-24T09:33:42.903Z,57.20
2022-11-24T09:36:10.988Z,57.20
2022-11-24T09:38:39.173Z,57.50
2022-11-24T09:41:31.701Z,57.80
2022-11-24T09:44:05.683Z,58.00
2022-11-24T09:46:43.457Z,58.00
2022-11-24T09:49:17.601Z,57.90
2022-11-24T09:51:47.815Z,57.70
2022-11-24T09:54:20.299Z,57.60
2022-11-24T09:56:51.110Z,57.60
2022-11-24T09:59:22.012Z,57.50
2022-11-24T10:01:52.376Z,57.30
2022-11-24T10:04:23.589Z,57.20
2022-11-24T10:07:01.148Z,57.10
2022-11-24T10:09:45.218Z,57.00
2022-11-24T10:12:27.530Z,57.00
2022-11-24T10:15:04.930Z,57.10
2022-11-24T10:17:56.173Z,57.20
2022-11-24T10:20:34.665Z,57.20
2022-11-24T10:23:13.149Z,56.90
2022-11-24T10:25:48.920Z,56.50
2022-11-24T10:28:17.399Z,56.10
2022-11-24T10:30:45.534Z,55.80
2022-11-24T10:33:19.055Z,55.50
2022-11-24T10:35:50.825Z,55.40
2022-11-24T10:38:32.117Z,55.30
2022-11-24T10:41:05.210Z,55.30
2022-11-24T10:43:33.136Z,55.30
2022-11-24T10:46:11.460Z,55.30
2022-11-24T10:48:44.413Z,55.30
2022-11-24T10:51:37.501Z,55.30
2022-11-24T10:54:12.280Z,55.20
2022-11-24T10:56:41.593Z,55.10
2022-11-24T10:59:23.379Z,54.90
2022-11-24T11:01:51.565Z,55.00
2022-11-24T11:04:22.721Z,54.90
2022-11-24T11:06:50.708Z,55.00
2022-11-24T11:09:20.915Z,54.90
2022-11-24T11:11:49.799Z,55.10
2022-11-24T11:14:31.464Z,55.20
2022-11-24T11:16:59.481Z,55.40
2022-11-24T11:19:48.991Z,55.40
2022-11-24T11:22:25.720Z,55.50
2022-11-24T11:25:05.801Z,55.40
2022-11-24T11:27:34.122Z,55.40
2022-11-24T11:36:12.336Z,55.30
2022-11-24T11:38:41.347Z,55.10
2022-11-24T11:41:18.043Z,55.20
2022-11-24T11:43:48.101Z,55.80
2022-11-24T11:46:17.057Z,55.20
2022-11-24T11:48:47.088Z,55.30
2022-11-24T11:51:32.963Z,55.40
2022-11-24T11:54:07.709Z,55.60
2022-11-24T11:56:40.799Z,55.50
2022-11-24T11:59:33.846Z,55.50
2022-11-24T12:02:32.055Z,55.60
2022-11-24T12:05:02.360Z,55.50
2022-11-24T12:07:48.540Z,55.30
2022-11-24T12:10:25.657Z,55.30
2022-11-24T12:13:09.470Z,55.20
2022-11-24T12:15:41.963Z,55.80
2022-11-24T12:18:55.112Z,55.20
2022-11-24T12:21:24.649Z,55.40
2022-11-24T12:24:05.741Z,55.60
2022-11-24T12:26:44.391Z,55.80
2022-11-24T12:29:36.863Z,56.00
2022-11-24T12:32:12.919Z,56.10
2022-11-24T12:34:50.169Z,56.00
2022-11-24T12:37:30.620Z,56.00
2022-11-24T12:40:06.659Z,56.10
2022-11-24T12:42:44.706Z,56.10
2022-11-24T12:45:16.189Z,56.20
2022-11-24T12:47:58.972Z,56.30
2022-11-24T12:50:30.199Z,56.50
2022-11-24T12:53:03.369Z,56.40
2022-11-24T12:55:34.705Z,56.60
2022-11-24T12:58:11.474Z,56.60
2022-11-24T13:00:54.689Z,56.50
2022-11-24T13:03:32.580Z,56.50
2022-11-24T13:06:06.484Z,56.60
2022-11-24T13:08:37.815Z,56.70
2022-11-24T13:11:35.757Z,57.00
2022-11-24T13:14:07.765Z,57.10
2022-11-24T13:16:44.427Z,57.20
2022-11-24T13:19:26.231Z,57.30
2022-11-24T13:22:16.668Z,57.20
2022-11-24T13:24:45.401Z,57.20
2022-11-24T13:27:44.978Z,56.90
2022-11-24T13:30:52.876Z,56.90
2022-11-24T13:33:33.313Z,56.70
2022-11-24T13:36:35.476Z,56.70
2022-11-24T13:39:05.568Z,56.70
2022-11-24T13:42:10.391Z,56.60
2022-11-24T13:45:00.636Z,56.70
2022-11-24T13:47:40.701Z,56.40
2022-11-24T13:50:24.981Z,56.50
2022-11-24T13:53:00.853Z,56.40
2022-11-24T13:55:35.026Z,56.40
2022-11-24T13:58:27.239Z,56.40
2022-11-24T14:01:04.917Z,56.50
2022-11-24T14:03:35.625Z,56.40
2022-11-24T14:06:04.272Z,56.30
2022-11-24T14:08:35.108Z,56.20
2022-11-24T14:11:04.308Z,56.10
2022-11-24T14:13:33.900Z,56.10
2022-11-24T14:16:05.704Z,55.90
2022-11-24T14:18:35.172Z,55.90
2022-11-24T14:21:27.444Z,55.80
2022-11-24T14:23:57.869Z,55.70
2022-11-24T14:26:31.394Z,55.70
2022-11-24T14:29:06.434Z,55.80
2022-11-24T14:31:35.789Z,55.60
2022-11-24T14:34:18.151Z,55.80
2022-11-24T14:36:46.088Z,55.90
2022-11-24T14:39:15.328Z,55.80
2022-11-24T14:41:45.364Z,55.80
2022-11-24T14:44:18.636Z,55.80
2022-11-24T14:46:48.356Z,55.90
2022-11-24T14:49:21.808Z,55.80
2022-11-24T14:51:56.902Z,55.80
2022-11-24T14:54:25.591Z,55.70
2022-11-24T14:56:59.152Z,55.70
2022-11-24T14:59:29.379Z,55.70
2022-11-24T15:01:59.535Z,55.70
2022-11-24T15:07:23.202Z,55.70
2022-11-24T15:09:53.908Z,55.70
2022-11-24T15:12:30.488Z,55.60
2022-11-24T15:15:01.394Z,55.60
2022-11-24T15:17:31.647Z,55.60
2022-11-24T15:20:03.839Z,55.50
2022-11-24T15:22:40.286Z,55.50
2022-11-24T15:25:29.147Z,55.50
2022-11-24T15:27:57.141Z,55.50
2022-11-24T15:30:25.116Z,55.30
2022-11-24T15:32:55.914Z,55.20
2022-11-24T15:35:25.131Z,55.20
2022-11-24T15:37:53.522Z,55.10
2022-11-24T15:40:21.663Z,55.20
2022-11-24T15:42:53.206Z,55.10
2022-11-24T15:45:22.703Z,55.10
2022-11-24T15:47:50.940Z,55.10
2022-11-24T15:50:21.028Z,55.10
2022-11-24T15:52:50.242Z,55.00
2022-11-24T15:55:20.519Z,54.90
2022-11-24T15:57:49.135Z,54.90
2022-11-24T16:00:19.382Z,54.90
2022-11-24T16:02:47.376Z,55.70
2022-11-24T16:05:16.274Z,55.80
2022-11-24T16:07:45.870Z,55.80
2022-11-24T16:10:24.594Z,55.90
2022-11-24T16:12:52.636Z,56.00
2022-11-24T16:15:20.580Z,55.90
2022-11-24T16:17:49.061Z,55.90
2022-11-24T16:20:17.282Z,56.00
2022-11-24T16:22:46.658Z,56.20
2022-11-24T16:25:15.237Z,56.30
2022-11-24T16:27:43.305Z,56.40
2022-11-24T16:30:13.674Z,56.50
2022-11-24T16:32:41.620Z,56.60
2022-11-24T16:35:09.795Z,56.80
2022-11-24T16:37:37.849Z,56.80
2022-11-24T16:40:08.445Z,56.90
2022-11-24T16:42:36.401Z,56.90
2022-11-24T16:45:04.683Z,56.90
2022-11-24T16:47:32.564Z,56.80
2022-11-24T16:50:00.526Z,56.70
2022-11-24T16:52:28.500Z,56.60
2022-11-24T16:54:56.466Z,57.00
2022-11-24T16:57:25.692Z,56.50
2022-11-24T16:59:53.636Z,56.40
2022-11-24T17:02:21.514Z,56.30
2022-11-24T17:04:52.126Z,56.20
2022-11-24T17:07:20.334Z,56.30
2022-11-24T17:09:49.110Z,56.20
2022-11-24T17:12:17.004Z,56.20
2022-11-24T17:15:03.116Z,56.20
2022-11-24T17:17:34.167Z,56.30
2022-11-24T17:20:02.128Z,56.20
2022-11-24T17:22:30.037Z,56.20
2022-11-24T17:24:57.956Z,56.20
2022-11-24T17:27:25.941Z,56.20
2022-11-24T17:29:55.185Z,56.30
2022-11-24T17:32:23.119Z,56.30
2022-11-24T17:34:51.021Z,56.20
2022-11-24T17:37:18.939Z,56.30
2022-11-24T17:39:59.947Z,56.20
2022-11-24T17:42:34.722Z,56.30
2022-11-24T17:45:04.492Z,56.20
2022-11-24T17:47:32.412Z,56.30
2022-11-24T17:50:00.324Z,56.20
2022-11-24T17:52:30.512Z,56.20
2022-11-24T17:54:58.801Z,56.30
2022-11-24T17:57:26.928Z,56.30
2022-11-24T17:59:54.862Z,56.30
2022-11-24T18:02:24.152Z,56.80
2022-11-24T18:04:52.169Z,56.30
2022-11-24T18:07:20.139Z,56.30
2022-11-24T18:09:48.123Z,56.30
2022-11-24T18:12:16.077Z,56.30
2022-11-24T18:14:44.711Z,56.20
2022-11-24T18:17:12.652Z,56.20
2022-11-24T18:19:41.932Z,56.10
2022-11-24T18:22:10.311Z,56.10
2022-11-24T18:24:38.330Z,56.10
2022-11-24T18:27:06.398Z,56.10
2022-11-24T18:29:34.384Z,56.10
2022-11-24T18:32:02.356Z,55.90
2022-11-24T18:34:30.645Z,55.80
2022-11-24T18:36:59.920Z,55.70
2022-11-24T18:39:29.503Z,55.70
2022-11-24T18:41:57.455Z,55.50
2022-11-24T18:44:25.400Z,55.50
2022-11-24T18:46:53.670Z,55.40
2022-11-24T18:49:21.570Z,55.30
2022-11-24T18:51:49.457Z,55.30
2022-11-24T18:54:18.736Z,55.30
2022-11-24T18:56:46.764Z,55.30
2022-11-24T18:59:14.639Z,55.30
2022-11-24T19:01:42.597Z,55.30
2022-11-24T19:04:10.791Z,55.40
2022-11-24T19:06:39.532Z,55.50
2022-11-24T19:09:09.208Z,55.40
2022-11-24T19:11:40.033Z,55.50
2022-11-24T19:14:09.767Z,55.40
2022-11-24T19:16:37.907Z,55.40
2022-11-24T19:19:05.959Z,55.40
2022-11-24T19:21:37.151Z,55.40
2022-11-24T19:24:06.371Z,55.40
2022-11-24T19:26:35.794Z,55.30
2022-11-24T19:29:06.189Z,55.30
2022-11-24T19:31:34.494Z,55.30
2022-11-24T19:34:03.412Z,55.20
2022-11-24T19:36:31.428Z,55.20
2022-11-24T19:39:00.122Z,55.20
2022-11-24T19:41:30.633Z,55.20
2022-11-24T19:43:59.143Z,55.20
2022-11-24T19:46:30.120Z,55.20
2022-11-24T19:49:00.421Z,55.30
2022-11-24T19:51:30.656Z,55.20
2022-11-24T19:53:59.020Z,55.10
2022-11-24T19:56:28.419Z,55.20
2022-11-24T19:58:56.591Z,55.20
2022-11-24T20:01:26.530Z,55.10
2022-11-24T20:03:59.812Z,55.70
2022-11-24T20:06:29.156Z,55.20
2022-11-24T20:08:58.429Z,55.10
2022-11-24T20:11:26.447Z,55.10
2022-11-24T20:13:54.441Z,55.10
2022-11-24T20:16:26.559Z,55.10
2022-11-24T20:18:56.086Z,55.10
2022-11-24T20:21:28.696Z,55.10
2022-11-24T20:23:58.989Z,54.90
2022-11-24T20:26:29.350Z,54.90
2022-11-24T20:28:58.600Z,55.30
2022-11-24T20:31:28.311Z,54.80
2022-11-24T20:33:56.942Z,54.90
2022-11-24T20:36:28.768Z,54.80
2022-11-24T20:38:57.369Z,55.30
2022-11-24T20:41:28.002Z,54.60
2022-11-24T20:43:57.460Z,54.60
2022-11-24T20:46:27.175Z,54.60
2022-11-24T20:48:55.985Z,54.70
2022-11-24T20:51:26.671Z,54.60
2022-11-24T20:53:56.069Z,54.60
2022-11-24T20:56:26.072Z,54.60
2022-11-24T20:58:54.312Z,54.60
2022-11-24T21:01:25.036Z,54.50
2022-11-24T21:03:54.153Z,54.50
2022-11-24T21:06:22.603Z,54.50
2022-11-24T21:08:52.287Z,54.40
2022-11-24T21:11:21.870Z,54.40
2022-11-24T21:13:50.543Z,54.40
2022-11-24T21:16:20.640Z,54.40
2022-11-24T21:18:50.984Z,54.40
2022-11-24T21:21:19.944Z,54.40
2022-11-24T21:23:48.107Z,54.30
2022-11-24T21:26:18.802Z,54.30
2022-11-24T21:28:48.258Z,54.40
2022-11-24T21:31:18.811Z,54.90
2022-11-24T21:33:48.960Z,54.30
2022-11-24T21:36:19.436Z,54.30
2022-11-24T21:38:51.883Z,54.30
2022-11-24T21:41:21.996Z,54.20
2022-11-24T21:43:50.133Z,54.20
2022-11-24T21:46:18.614Z,54.20
2022-11-24T21:48:46.567Z,54.20
2022-11-24T21:51:16.024Z,54.10
2022-11-24T21:53:45.092Z,54.10
2022-11-24T21:56:15.307Z,54.20
2022-11-24T21:58:49.001Z,54.20
2022-11-24T22:01:19.071Z,54.30
2022-11-24T22:03:47.242Z,54.20
2022-11-24T22:06:16.550Z,54.20
2022-11-24T22:08:44.720Z,54.30
2022-11-24T22:11:14.799Z,54.30
2022-11-24T22:13:43.493Z,54.40
2022-11-24T22:16:14.835Z,54.30
2022-11-24T22:18:44.008Z,54.20
2022-11-24T22:21:14.283Z,54.10
2022-11-24T22:23:42.799Z,54.10
2022-11-24T22:26:13.478Z,54.10
2022-11-24T22:28:41.813Z,54.10
2022-11-24T22:31:13.621Z,54.00
2022-11-24T22:33:41.938Z,54.10
2022-11-24T22:36:10.878Z,54.10
2022-11-24T22:38:39.219Z,54.00
2022-11-24T22:41:09.035Z,54.00
2022-11-24T22:43:38.477Z,54.10
2022-11-24T22:46:07.523Z,54.20
2022-11-24T22:48:36.934Z,54.20
2022-11-24T22:51:06.467Z,54.20
2022-11-24T22:53:34.606Z,54.20
2022-11-24T22:56:03.515Z,54.10
2022-11-24T22:58:31.707Z,54.10
2022-11-24T23:01:05.018Z,54.10
2022-11-24T23:03:33.169Z,54.10
2022-11-24T23:06:03.244Z,54.00
2022-11-24T23:08:33.085Z,54.00
2022-11-24T23:11:02.020Z,54.00
2022-11-24T23:13:30.128Z,54.00
2022-11-24T23:16:02.545Z,54.00
2022-11-24T23:18:30.809Z,53.90
2022-11-24T23:21:04.532Z,53.90
2022-11-24T23:23:34.208Z,53.90
2022-11-24T23:26:02.261Z,53.90
2022-11-24T23:28:30.189Z,54.10
2022-11-24T23:31:02.300Z,54.00
2022-11-24T23:33:30.272Z,54.00
2022-11-24T23:36:01.471Z,54.00
2022-11-24T23:38:30.192Z,54.10
2022-11-24T23:40:59.730Z,54.00
2022-11-24T23:43:28.215Z,54.00
2022-11-24T23:45:56.163Z,53.90
2022-11-24T23:48:24.111Z,53.90
2022-11-24T23:50:52.148Z,53.90
2022-11-24T23:53:20.020Z,54.00
2022-11-24T23:55:54.440Z,53.90
2022-11-24T23:58:24.351Z,54.00
